sensor_id;sensor_type;location;lat;lon;timestamp;P1;durP1;ratioP1;P2;durP2;ratioP2
22774;SDS011;11554;51.106;3.684;2022-08-01T00:00:00;9.70;;;5.80;;
22774;SDS011;11554;51.106;3.684;2022-08-01T00:05:00;9.70;;;5.80;;
22774;SDS011;11554;51.106;3.684;2022-08-01T00:10:00;11.60;;;6.60;;
22774;SDS011;11554;51.106;3.684;2022-08-01T00:15:00;11.60;;;6.60;;
22774;SDS011;11554;51.106;3.684;2022-08-01T00:20:00;11.80;;;6.60;;
22774;SDS011;11554;51.106;3.684;2022-08-01T00:25:00;11.80;;;6.60;;
22774;SDS011;11554;51.106;3.684;2022-08-01T00:30:00;16.80;;;7.20;;
22774;SDS011;11554;51.106;3.684;2022-08-01T00:35:00;16.80;;;7.20;;
22774;SDS011;11554;51.106;3.684;2022-08-01T00:40:00;17.00;;;7.80;;
22774;SDS011;11554;51.106;3.684;2022-08-01T00:45:01;17.00;;;7.80;;
22774;SDS011;11554;51.106;3.684;2022-08-01T00:50:01;19.40;;;9.40;;
22774;SDS011;11554;51.106;3.684;2022-08-01T00:55:00;19.40;;;9.40;;
22774;SDS011;11554;51.106;3.684;2022-08-01T01:00:01;25.70;;;11.20;;
22774;SDS011;11554;51.106;3.684;2022-08-01T01:05:00;25.70;;;11.20;;
22774;SDS011;11554;51.106;3.684;2022-08-01T01:10:03;22.80;;;11.80;;
22774;SDS011;11554;51.106;3.684;2022-08-01T01:15:03;22.80;;;11.80;;
22774;SDS011;11554;51.106;3.684;2022-08-01T01:20:03;21.90;;;11.40;;
22774;SDS011;11554;51.106;3.684;2022-08-01T01:25:18;21.90;;;11.40;;
22774;SDS011;11554;51.106;3.684;2022-08-01T01:30:01;18.70;;;8.50;;
22774;SDS011;11554;51.106;3.684;2022-08-01T01:35:02;18.70;;;8.50;;
22774;SDS011;11554;51.106;3.684;2022-08-01T01:40:01;10.90;;;4.90;;
22774;SDS011;11554;51.106;3.684;2022-08-01T01:45:03;10.90;;;4.90;;
22774;SDS011;11554;51.106;3.684;2022-08-01T01:50:02;8.20;;;4.50;;
22774;SDS011;11554;51.106;3.684;2022-08-01T01:55:01;8.20;;;4.50;;
22774;SDS011;11554;51.106;3.684;2022-08-01T02:00:00;7.10;;;4.30;;
22774;SDS011;11554;51.106;3.684;2022-08-01T02:05:01;7.10;;;4.30;;
22774;SDS011;11554;51.106;3.684;2022-08-01T02:10:02;9.10;;;4.00;;
22774;SDS011;11554;51.106;3.684;2022-08-01T02:15:02;9.10;;;4.00;;
22774;SDS011;11554;51.106;3.684;2022-08-01T02:20:00;10.20;;;4.00;;
22774;SDS011;11554;51.106;3.684;2022-08-01T02:25:03;10.20;;;4.00;;
22774;SDS011;11554;51.106;3.684;2022-08-01T02:30:03;6.20;;;3.00;;
22774;SDS011;11554;51.106;3.684;2022-08-01T02:35:01;6.20;;;3.00;;
22774;SDS011;11554;51.106;3.684;2022-08-01T02:40:02;5.60;;;2.40;;
22774;SDS011;11554;51.106;3.684;2022-08-01T02:45:02;5.60;;;2.40;;
22774;SDS011;11554;51.106;3.684;2022-08-01T02:50:00;4.30;;;1.90;;
22774;SDS011;11554;51.106;3.684;2022-08-01T02:55:01;4.30;;;1.90;;
22774;SDS011;11554;51.106;3.684;2022-08-01T03:00:00;4.70;;;1.50;;
22774;SDS011;11554;51.106;3.684;2022-08-01T03:05:01;4.70;;;1.50;;
22774;SDS011;11554;51.106;3.684;2022-08-01T03:10:01;5.00;;;1.70;;
22774;SDS011;11554;51.106;3.684;2022-08-01T03:15:02;5.00;;;1.70;;
22774;SDS011;11554;51.106;3.684;2022-08-01T03:20:02;3.40;;;1.50;;
22774;SDS011;11554;51.106;3.684;2022-08-01T03:25:00;3.40;;;1.50;;
22774;SDS011;11554;51.106;3.684;2022-08-01T03:30:03;2.90;;;1.60;;
22774;SDS011;11554;51.106;3.684;2022-08-01T03:35:00;2.90;;;1.60;;
22774;SDS011;11554;51.106;3.684;2022-08-01T03:40:05;4.50;;;1.70;;
22774;SDS011;11554;51.106;3.684;2022-08-01T03:45:04;4.50;;;1.70;;
22774;SDS011;11554;51.106;3.684;2022-08-01T03:50:01;5.40;;;2.10;;
22774;SDS011;11554;51.106;3.684;2022-08-01T03:55:04;5.40;;;2.10;;
22774;SDS011;11554;51.106;3.684;2022-08-01T04:00:00;4.20;;;2.10;;
22774;SDS011;11554;51.106;3.684;2022-08-01T04:05:01;4.20;;;2.10;;
22774;SDS011;11554;51.106;3.684;2022-08-01T04:10:00;4.40;;;2.60;;
22774;SDS011;11554;51.106;3.684;2022-08-01T04:15:00;4.40;;;2.60;;
22774;SDS011;11554;51.106;3.684;2022-08-01T04:20:00;4.90;;;2.60;;
22774;SDS011;11554;51.106;3.684;2022-08-01T04:25:01;4.90;;;2.60;;
22774;SDS011;11554;51.106;3.684;2022-08-01T04:30:00;3.80;;;2.60;;
22774;SDS011;11554;51.106;3.684;2022-08-01T04:35:03;3.80;;;2.60;;
22774;SDS011;11554;51.106;3.684;2022-08-01T04:40:00;5.00;;;2.50;;
22774;SDS011;11554;51.106;3.684;2022-08-01T04:45:01;5.00;;;2.50;;
22774;SDS011;11554;51.106;3.684;2022-08-01T04:50:00;4.60;;;2.90;;
22774;SDS011;11554;51.106;3.684;2022-08-01T04:55:00;4.60;;;2.90;;
22774;SDS011;11554;51.106;3.684;2022-08-01T05:00:00;6.30;;;3.20;;
22774;SDS011;11554;51.106;3.684;2022-08-01T05:05:00;6.30;;;3.20;;
22774;SDS011;11554;51.106;3.684;2022-08-01T05:10:00;7.90;;;3.40;;
22774;SDS011;11554;51.106;3.684;2022-08-01T05:15:00;7.90;;;3.40;;
22774;SDS011;11554;51.106;3.684;2022-08-01T05:20:00;4.90;;;3.10;;
22774;SDS011;11554;51.106;3.684;2022-08-01T05:25:00;4.90;;;3.10;;
22774;SDS011;11554;51.106;3.684;2022-08-01T05:30:00;5.40;;;2.80;;
22774;SDS011;11554;51.106;3.684;2022-08-01T05:35:00;5.40;;;2.80;;
22774;SDS011;11554;51.106;3.684;2022-08-01T05:40:00;6.40;;;3.30;;
22774;SDS011;11554;51.106;3.684;2022-08-01T05:45:00;6.40;;;3.30;;
22774;SDS011;11554;51.106;3.684;2022-08-01T05:50:00;4.40;;;3.20;;
22774;SDS011;11554;51.106;3.684;2022-08-01T05:55:00;4.40;;;3.20;;
22774;SDS011;11554;51.106;3.684;2022-08-01T06:00:00;5.60;;;3.10;;
22774;SDS011;11554;51.106;3.684;2022-08-01T06:05:00;5.60;;;3.10;;
22774;SDS011;11554;51.106;3.684;2022-08-01T06:10:00;6.30;;;2.60;;
22774;SDS011;11554;51.106;3.684;2022-08-01T06:15:00;6.30;;;2.60;;
22774;SDS011;11554;51.106;3.684;2022-08-01T06:20:00;4.50;;;2.10;;
22774;SDS011;11554;51.106;3.684;2022-08-01T06:25:00;4.50;;;2.10;;
22774;SDS011;11554;51.106;3.684;2022-08-01T06:30:00;3.90;;;1.80;;
22774;SDS011;11554;51.106;3.684;2022-08-01T06:35:00;3.90;;;1.80;;
22774;SDS011;11554;51.106;3.684;2022-08-01T06:40:00;3.20;;;1.20;;
22774;SDS011;11554;51.106;3.684;2022-08-01T06:45:00;3.20;;;1.20;;
22774;SDS011;11554;51.106;3.684;2022-08-01T06:50:00;3.00;;;1.20;;
22774;SDS011;11554;51.106;3.684;2022-08-01T06:55:00;3.00;;;1.20;;
22774;SDS011;11554;51.106;3.684;2022-08-01T07:00:02;3.50;;;1.20;;
22774;SDS011;11554;51.106;3.684;2022-08-01T07:05:00;3.50;;;1.20;;
22774;SDS011;11554;51.106;3.684;2022-08-01T07:10:00;2.30;;;0.70;;
22774;SDS011;11554;51.106;3.684;2022-08-01T07:15:00;2.30;;;0.70;;
22774;SDS011;11554;51.106;3.684;2022-08-01T07:20:01;2.80;;;0.60;;
22774;SDS011;11554;51.106;3.684;2022-08-01T07:25:00;2.80;;;0.60;;
22774;SDS011;11554;51.106;3.684;2022-08-01T07:30:00;2.80;;;0.70;;
22774;SDS011;11554;51.106;3.684;2022-08-01T07:35:00;2.80;;;0.70;;
22774;SDS011;11554;51.106;3.684;2022-08-01T07:40:00;1.60;;;0.60;;
22774;SDS011;11554;51.106;3.684;2022-08-01T07:45:00;1.60;;;0.60;;
22774;SDS011;11554;51.106;3.684;2022-08-01T07:50:00;1.20;;;0.70;;
22774;SDS011;11554;51.106;3.684;2022-08-01T07:55:00;1.20;;;0.70;;
22774;SDS011;11554;51.106;3.684;2022-08-01T08:00:00;2.20;;;0.60;;
22774;SDS011;11554;51.106;3.684;2022-08-01T08:05:00;2.20;;;0.60;;
22774;SDS011;11554;51.106;3.684;2022-08-01T08:10:00;2.20;;;0.70;;
22774;SDS011;11554;51.106;3.684;2022-08-01T08:15:00;2.20;;;0.70;;
22774;SDS011;11554;51.106;3.684;2022-08-01T08:20:00;1.50;;;0.70;;
22774;SDS011;11554;51.106;3.684;2022-08-01T08:25:00;1.50;;;0.70;;
22774;SDS011;11554;51.106;3.684;2022-08-01T08:30:00;2.90;;;0.70;;
22774;SDS011;11554;51.106;3.684;2022-08-01T08:35:00;2.90;;;0.70;;
22774;SDS011;11554;51.106;3.684;2022-08-01T08:40:00;3.00;;;0.60;;
22774;SDS011;11554;51.106;3.684;2022-08-01T08:45:00;3.00;;;0.60;;
22774;SDS011;11554;51.106;3.684;2022-08-01T08:50:00;2.40;;;0.60;;
22774;SDS011;11554;51.106;3.684;2022-08-01T08:55:00;2.40;;;0.60;;
22774;SDS011;11554;51.106;3.684;2022-08-01T09:00:00;3.40;;;0.70;;
22774;SDS011;11554;51.106;3.684;2022-08-01T09:05:00;3.40;;;0.70;;
22774;SDS011;11554;51.106;3.684;2022-08-01T09:10:00;3.30;;;0.90;;
22774;SDS011;11554;51.106;3.684;2022-08-01T09:15:00;3.30;;;0.90;;
22774;SDS011;11554;51.106;3.684;2022-08-01T09:20:00;4.20;;;0.80;;
22774;SDS011;11554;51.106;3.684;2022-08-01T09:25:03;4.20;;;0.80;;
22774;SDS011;11554;51.106;3.684;2022-08-01T09:30:10;2.20;;;0.80;;
22774;SDS011;11554;51.106;3.684;2022-08-01T09:40:00;2.90;;;1.00;;
22774;SDS011;11554;51.106;3.684;2022-08-01T09:45:00;2.90;;;1.00;;
22774;SDS011;11554;51.106;3.684;2022-08-01T09:50:00;2.40;;;1.00;;
22774;SDS011;11554;51.106;3.684;2022-08-01T09:55:04;2.40;;;1.00;;
22774;SDS011;11554;51.106;3.684;2022-08-01T10:00:01;2.80;;;0.70;;
22774;SDS011;11554;51.106;3.684;2022-08-01T10:05:01;2.80;;;0.70;;
22774;SDS011;11554;51.106;3.684;2022-08-01T10:10:09;3.70;;;1.00;;
22774;SDS011;11554;51.106;3.684;2022-08-01T10:15:00;3.70;;;1.00;;
22774;SDS011;11554;51.106;3.684;2022-08-01T10:20:01;5.10;;;1.20;;
22774;SDS011;11554;51.106;3.684;2022-08-01T10:25:03;5.10;;;1.20;;
22774;SDS011;11554;51.106;3.684;2022-08-01T10:30:02;3.10;;;1.00;;
22774;SDS011;11554;51.106;3.684;2022-08-01T10:35:00;3.10;;;1.00;;
22774;SDS011;11554;51.106;3.684;2022-08-01T10:40:00;2.20;;;1.00;;
22774;SDS011;11554;51.106;3.684;2022-08-01T10:45:00;2.20;;;1.00;;
22774;SDS011;11554;51.106;3.684;2022-08-01T10:50:07;3.60;;;1.30;;
22774;SDS011;11554;51.106;3.684;2022-08-01T10:55:02;3.60;;;1.30;;
22774;SDS011;11554;51.106;3.684;2022-08-01T11:00:00;2.30;;;1.20;;
22774;SDS011;11554;51.106;3.684;2022-08-01T11:05:02;2.30;;;1.20;;
22774;SDS011;11554;51.106;3.684;2022-08-01T11:10:04;2.70;;;1.40;;
22774;SDS011;11554;51.106;3.684;2022-08-01T11:15:18;2.70;;;1.40;;
22774;SDS011;11554;51.106;3.684;2022-08-01T11:20:04;2.60;;;1.30;;
22774;SDS011;11554;51.106;3.684;2022-08-01T11:25:00;2.60;;;1.30;;
22774;SDS011;11554;51.106;3.684;2022-08-01T11:35:00;2.60;;;1.00;;
22774;SDS011;11554;51.106;3.684;2022-08-01T11:40:18;3.50;;;1.20;;
22774;SDS011;11554;51.106;3.684;2022-08-01T11:45:00;3.50;;;1.20;;
22774;SDS011;11554;51.106;3.684;2022-08-01T11:50:00;3.10;;;1.10;;
22774;SDS011;11554;51.106;3.684;2022-08-01T11:55:06;3.10;;;1.10;;
22774;SDS011;11554;51.106;3.684;2022-08-01T12:00:02;4.70;;;1.20;;
22774;SDS011;11554;51.106;3.684;2022-08-01T12:05:04;4.70;;;1.20;;
22774;SDS011;11554;51.106;3.684;2022-08-01T12:10:03;4.00;;;1.10;;
22774;SDS011;11554;51.106;3.684;2022-08-01T12:15:02;4.00;;;1.10;;
22774;SDS011;11554;51.106;3.684;2022-08-01T12:20:01;4.50;;;1.30;;
22774;SDS011;11554;51.106;3.684;2022-08-01T12:25:09;4.50;;;1.30;;
22774;SDS011;11554;51.106;3.684;2022-08-01T12:30:00;4.30;;;1.50;;
22774;SDS011;11554;51.106;3.684;2022-08-01T12:35:02;4.30;;;1.50;;
22774;SDS011;11554;51.106;3.684;2022-08-01T12:40:00;3.90;;;1.50;;
22774;SDS011;11554;51.106;3.684;2022-08-01T12:45:00;3.90;;;1.50;;
22774;SDS011;11554;51.106;3.684;2022-08-01T12:50:00;6.10;;;1.80;;
22774;SDS011;11554;51.106;3.684;2022-08-01T12:55:07;6.10;;;1.80;;
22774;SDS011;11554;51.106;3.684;2022-08-01T13:00:10;6.00;;;1.60;;
22774;SDS011;11554;51.106;3.684;2022-08-01T13:05:01;6.00;;;1.60;;
22774;SDS011;11554;51.106;3.684;2022-08-01T13:10:00;3.00;;;1.10;;
22774;SDS011;11554;51.106;3.684;2022-08-01T13:15:18;3.00;;;1.10;;
22774;SDS011;11554;51.106;3.684;2022-08-01T13:20:00;4.80;;;0.80;;
22774;SDS011;11554;51.106;3.684;2022-08-01T13:25:10;4.80;;;0.80;;
22774;SDS011;11554;51.106;3.684;2022-08-01T13:30:10;3.30;;;0.90;;
22774;SDS011;11554;51.106;3.684;2022-08-01T13:35:01;3.30;;;0.90;;
22774;SDS011;11554;51.106;3.684;2022-08-01T13:40:00;2.60;;;1.00;;
22774;SDS011;11554;51.106;3.684;2022-08-01T13:45:00;2.60;;;1.00;;
22774;SDS011;11554;51.106;3.684;2022-08-01T13:50:00;2.90;;;0.60;;
22774;SDS011;11554;51.106;3.684;2022-08-01T13:55:00;2.90;;;0.60;;
22774;SDS011;11554;51.106;3.684;2022-08-01T14:00:00;2.90;;;0.80;;
22774;SDS011;11554;51.106;3.684;2022-08-01T14:05:00;2.90;;;0.80;;
22774;SDS011;11554;51.106;3.684;2022-08-01T14:10:00;2.40;;;0.80;;
22774;SDS011;11554;51.106;3.684;2022-08-01T14:15:00;2.40;;;0.80;;
22774;SDS011;11554;51.106;3.684;2022-08-01T14:20:00;3.80;;;0.80;;
22774;SDS011;11554;51.106;3.684;2022-08-01T14:25:00;3.80;;;0.80;;
22774;SDS011;11554;51.106;3.684;2022-08-01T14:30:00;3.80;;;0.70;;
22774;SDS011;11554;51.106;3.684;2022-08-01T14:35:01;3.80;;;0.70;;
22774;SDS011;11554;51.106;3.684;2022-08-01T14:40:00;5.00;;;1.30;;
22774;SDS011;11554;51.106;3.684;2022-08-01T14:45:01;5.00;;;1.30;;
22774;SDS011;11554;51.106;3.684;2022-08-01T14:50:00;5.00;;;1.30;;
22774;SDS011;11554;51.106;3.684;2022-08-01T14:55:00;2.90;;;0.80;;
22774;SDS011;11554;51.106;3.684;2022-08-01T15:00:00;2.90;;;0.80;;
22774;SDS011;11554;51.106;3.684;2022-08-01T15:05:00;2.30;;;0.80;;
22774;SDS011;11554;51.106;3.684;2022-08-01T15:10:00;2.30;;;0.80;;
22774;SDS011;11554;51.106;3.684;2022-08-01T15:15:00;3.80;;;0.80;;
22774;SDS011;11554;51.106;3.684;2022-08-01T15:20:02;3.80;;;0.80;;
22774;SDS011;11554;51.106;3.684;2022-08-01T15:25:01;2.60;;;0.90;;
22774;SDS011;11554;51.106;3.684;2022-08-01T15:30:00;2.60;;;0.90;;
22774;SDS011;11554;51.106;3.684;2022-08-01T15:35:00;3.10;;;0.80;;
22774;SDS011;11554;51.106;3.684;2022-08-01T15:40:00;3.10;;;0.80;;
22774;SDS011;11554;51.106;3.684;2022-08-01T15:45:00;2.80;;;0.70;;
22774;SDS011;11554;51.106;3.684;2022-08-01T15:50:00;2.80;;;0.70;;
22774;SDS011;11554;51.106;3.684;2022-08-01T15:55:00;2.80;;;0.70;;
22774;SDS011;11554;51.106;3.684;2022-08-01T16:00:00;2.80;;;0.70;;
22774;SDS011;11554;51.106;3.684;2022-08-01T16:05:00;2.20;;;0.70;;
22774;SDS011;11554;51.106;3.684;2022-08-01T16:10:00;2.20;;;0.70;;
22774;SDS011;11554;51.106;3.684;2022-08-01T16:15:00;4.80;;;0.90;;
22774;SDS011;11554;51.106;3.684;2022-08-01T16:20:00;4.80;;;0.90;;
22774;SDS011;11554;51.106;3.684;2022-08-01T16:25:00;3.60;;;0.70;;
22774;SDS011;11554;51.106;3.684;2022-08-01T16:30:00;3.60;;;0.70;;
22774;SDS011;11554;51.106;3.684;2022-08-01T16:35:00;2.80;;;0.90;;
22774;SDS011;11554;51.106;3.684;2022-08-01T16:40:00;2.80;;;0.90;;
22774;SDS011;11554;51.106;3.684;2022-08-01T16:45:00;2.80;;;0.70;;
22774;SDS011;11554;51.106;3.684;2022-08-01T16:50:00;2.80;;;0.70;;
22774;SDS011;11554;51.106;3.684;2022-08-01T16:55:00;2.40;;;0.90;;
22774;SDS011;11554;51.106;3.684;2022-08-01T17:00:00;2.40;;;0.90;;
22774;SDS011;11554;51.106;3.684;2022-08-01T17:05:00;3.50;;;0.90;;
22774;SDS011;11554;51.106;3.684;2022-08-01T17:10:00;3.50;;;0.90;;
22774;SDS011;11554;51.106;3.684;2022-08-01T17:15:00;2.50;;;0.60;;
22774;SDS011;11554;51.106;3.684;2022-08-01T17:20:00;2.50;;;0.60;;
22774;SDS011;11554;51.106;3.684;2022-08-01T17:25:00;2.20;;;0.80;;
22774;SDS011;11554;51.106;3.684;2022-08-01T17:30:00;2.20;;;0.80;;
22774;SDS011;11554;51.106;3.684;2022-08-01T17:35:00;3.90;;;1.00;;
22774;SDS011;11554;51.106;3.684;2022-08-01T17:40:00;3.90;;;1.00;;
22774;SDS011;11554;51.106;3.684;2022-08-01T17:45:00;4.00;;;0.70;;
22774;SDS011;11554;51.106;3.684;2022-08-01T17:50:00;4.00;;;0.70;;
22774;SDS011;11554;51.106;3.684;2022-08-01T17:55:01;3.70;;;0.80;;
22774;SDS011;11554;51.106;3.684;2022-08-01T18:00:00;3.70;;;0.80;;
22774;SDS011;11554;51.106;3.684;2022-08-01T18:05:00;4.40;;;1.20;;
22774;SDS011;11554;51.106;3.684;2022-08-01T18:10:00;4.40;;;1.20;;
22774;SDS011;11554;51.106;3.684;2022-08-01T18:15:00;4.20;;;1.10;;
22774;SDS011;11554;51.106;3.684;2022-08-01T18:20:00;4.20;;;1.10;;
22774;SDS011;11554;51.106;3.684;2022-08-01T18:25:00;5.30;;;1.30;;
22774;SDS011;11554;51.106;3.684;2022-08-01T18:30:00;5.30;;;1.30;;
22774;SDS011;11554;51.106;3.684;2022-08-01T18:35:00;4.60;;;1.10;;
22774;SDS011;11554;51.106;3.684;2022-08-01T18:40:00;4.60;;;1.10;;
22774;SDS011;11554;51.106;3.684;2022-08-01T18:45:00;4.50;;;1.20;;
22774;SDS011;11554;51.106;3.684;2022-08-01T18:50:00;4.50;;;1.20;;
22774;SDS011;11554;51.106;3.684;2022-08-01T18:55:00;6.10;;;1.20;;
22774;SDS011;11554;51.106;3.684;2022-08-01T19:00:00;6.10;;;1.20;;
22774;SDS011;11554;51.106;3.684;2022-08-01T19:05:00;9.40;;;1.30;;
22774;SDS011;11554;51.106;3.684;2022-08-01T19:10:00;9.40;;;1.30;;
22774;SDS011;11554;51.106;3.684;2022-08-01T19:15:00;3.60;;;1.10;;
22774;SDS011;11554;51.106;3.684;2022-08-01T19:20:00;3.60;;;1.10;;
22774;SDS011;11554;51.106;3.684;2022-08-01T19:25:00;5.90;;;1.10;;
22774;SDS011;11554;51.106;3.684;2022-08-01T19:30:03;5.90;;;1.10;;
22774;SDS011;11554;51.106;3.684;2022-08-01T19:35:03;6.90;;;1.50;;
22774;SDS011;11554;51.106;3.684;2022-08-01T19:40:00;6.90;;;1.50;;
22774;SDS011;11554;51.106;3.684;2022-08-01T19:45:01;3.50;;;1.30;;
22774;SDS011;11554;51.106;3.684;2022-08-01T19:50:00;3.50;;;1.30;;
22774;SDS011;11554;51.106;3.684;2022-08-01T19:55:00;5.10;;;1.40;;
22774;SDS011;11554;51.106;3.684;2022-08-01T20:00:00;5.10;;;1.40;;
22774;SDS011;11554;51.106;3.684;2022-08-01T20:05:01;3.40;;;1.20;;
22774;SDS011;11554;51.106;3.684;2022-08-01T20:10:00;3.40;;;1.20;;
22774;SDS011;11554;51.106;3.684;2022-08-01T20:15:00;5.20;;;1.30;;
22774;SDS011;11554;51.106;3.684;2022-08-01T20:20:00;5.20;;;1.30;;
22774;SDS011;11554;51.106;3.684;2022-08-01T20:25:01;5.10;;;1.30;;
22774;SDS011;11554;51.106;3.684;2022-08-01T20:30:00;5.10;;;1.30;;
22774;SDS011;11554;51.106;3.684;2022-08-01T20:35:02;8.90;;;1.80;;
22774;SDS011;11554;51.106;3.684;2022-08-01T20:40:00;8.90;;;1.80;;
22774;SDS011;11554;51.106;3.684;2022-08-01T20:45:01;5.40;;;1.50;;
22774;SDS011;11554;51.106;3.684;2022-08-01T20:50:00;5.40;;;1.50;;
22774;SDS011;11554;51.106;3.684;2022-08-01T20:55:00;6.90;;;1.80;;
22774;SDS011;11554;51.106;3.684;2022-08-01T21:00:02;6.90;;;1.80;;
22774;SDS011;11554;51.106;3.684;2022-08-01T21:05:03;4.60;;;1.60;;
22774;SDS011;11554;51.106;3.684;2022-08-01T21:10:04;4.60;;;1.60;;
22774;SDS011;11554;51.106;3.684;2022-08-01T21:15:00;4.10;;;1.50;;
22774;SDS011;11554;51.106;3.684;2022-08-01T21:20:02;4.10;;;1.50;;
22774;SDS011;11554;51.106;3.684;2022-08-01T21:25:04;5.30;;;1.80;;
22774;SDS011;11554;51.106;3.684;2022-08-01T21:30:01;5.30;;;1.80;;
22774;SDS011;11554;51.106;3.684;2022-08-01T21:35:02;5.50;;;1.70;;
22774;SDS011;11554;51.106;3.684;2022-08-01T21:40:01;5.50;;;1.70;;
22774;SDS011;11554;51.106;3.684;2022-08-01T21:45:01;7.00;;;1.70;;
22774;SDS011;11554;51.106;3.684;2022-08-01T21:50:01;7.00;;;1.70;;
22774;SDS011;11554;51.106;3.684;2022-08-01T21:55:04;4.90;;;1.70;;
22774;SDS011;11554;51.106;3.684;2022-08-01T22:00:07;4.90;;;1.70;;
22774;SDS011;11554;51.106;3.684;2022-08-01T22:05:03;7.60;;;2.50;;
22774;SDS011;11554;51.106;3.684;2022-08-01T22:10:03;7.60;;;2.50;;
22774;SDS011;11554;51.106;3.684;2022-08-01T22:15:02;8.00;;;2.50;;
22774;SDS011;11554;51.106;3.684;2022-08-01T22:20:00;8.00;;;2.50;;
22774;SDS011;11554;51.106;3.684;2022-08-01T22:25:00;7.20;;;2.50;;
22774;SDS011;11554;51.106;3.684;2022-08-01T22:30:04;7.20;;;2.50;;
22774;SDS011;11554;51.106;3.684;2022-08-01T22:35:01;6.80;;;2.50;;
22774;SDS011;11554;51.106;3.684;2022-08-01T22:40:02;6.80;;;2.50;;
22774;SDS011;11554;51.106;3.684;2022-08-01T22:45:04;8.20;;;2.20;;
22774;SDS011;11554;51.106;3.684;2022-08-01T22:50:04;8.20;;;2.20;;
22774;SDS011;11554;51.106;3.684;2022-08-01T22:55:03;8.80;;;2.40;;
22774;SDS011;11554;51.106;3.684;2022-08-01T23:00:03;8.80;;;2.40;;
22774;SDS011;11554;51.106;3.684;2022-08-01T23:05:02;6.80;;;2.30;;
22774;SDS011;11554;51.106;3.684;2022-08-01T23:10:04;6.80;;;2.30;;
22774;SDS011;11554;51.106;3.684;2022-08-01T23:15:00;5.80;;;1.80;;
22774;SDS011;11554;51.106;3.684;2022-08-01T23:20:02;5.80;;;1.80;;
22774;SDS011;11554;51.106;3.684;2022-08-01T23:25:03;6.40;;;1.90;;
22774;SDS011;11554;51.106;3.684;2022-08-01T23:30:01;6.40;;;1.90;;
22774;SDS011;11554;51.106;3.684;2022-08-01T23:35:00;8.20;;;2.20;;
22774;SDS011;11554;51.106;3.684;2022-08-01T23:40:00;8.20;;;2.20;;
22774;SDS011;11554;51.106;3.684;2022-08-01T23:45:00;7.40;;;2.20;;
22774;SDS011;11554;51.106;3.684;2022-08-01T23:50:00;7.40;;;2.20;;
22774;SDS011;11554;51.106;3.684;2022-08-01T23:55:00;6.70;;;2.40;;
